Time;durP1;ratioP1;P1;durP2;ratioP2;P2;SDS_P1;SDS_P2;PMS_P1;PMS_P2;Temp;Humidity;BMP_temperature;BMP_pressure;BME280_temperature;BME280_humidity;BME280_pressure;Samples;Min_cycle;Max_cycle;Signal;HPM_P1;HPM_P2
2023/12/28 00:00:32;;;;;;;22.30;10.10;;;;;;;;;;5003748;28;20061;-71
2023/12/28 00:04:13;;;;;;;17.80;9.88;;;;;;;;;;5000695;28;20545;-68
2023/12/28 00:07:57;;;;;;;20.20;11.05;;;;;;;;;;4998004;28;20049;-69
2023/12/28 00:11:38;;;;;;;17.85;10.52;;;;;;;;;;5002484;28;20045;-69
2023/12/28 00:15:20;;;;;;;19.55;10.98;;;;;;;;;;5007888;28;20056;-69
2023/12/28 00:19:02;;;;;;;22.58;11.75;;;;;;;;;;5005410;28;20057;-71
2023/12/28 00:22:40;;;;;;;20.65;11.38;;;;;;;;;;4996000;28;20049;-70
2023/12/28 00:26:22;;;;;;;24.08;11.48;;;;;;;;;;5001727;28;20496;-70
2023/12/28 00:30:05;;;;;;;23.90;11.82;;;;;;;;;;5003685;28;20061;-69
2023/12/28 00:33:45;;;;;;;21.88;10.73;;;;;;;;;;5000694;28;20403;-70
2023/12/28 00:37:26;;;;;;;22.00;11.38;;;;;;;;;;4997505;28;20084;-71
2023/12/28 00:41:07;;;;;;;17.60;11.10;;;;;;;;;;5007621;28;20277;-69
2023/12/28 00:44:47;;;;;;;21.70;11.38;;;;;;;;;;5005540;28;21418;-72
2023/12/28 00:48:28;;;;;;;21.55;10.63;;;;;;;;;;5000783;28;20076;-71
2023/12/28 00:52:08;;;;;;;22.05;10.45;;;;;;;;;;5002700;28;20057;-69
2023/12/28 00:55:48;;;;;;;18.48;10.98;;;;;;;;;;5004923;28;20060;-71
2023/12/28 00:59:29;;;;;;;17.92;10.32;;;;;;;;;;4999689;28;20057;-68
2023/12/28 01:03:09;;;;;;;22.00;10.38;;;;;;;;;;4999216;28;20424;-69
2023/12/28 01:06:50;;;;;;;22.02;10.57;;;;;;;;;;4997689;28;20129;-69
2023/12/28 01:10:31;;;;;;;19.20;10.30;;;;;;;;;;4999001;28;20042;-71
2023/12/28 01:14:11;;;;;;;21.13;10.50;;;;;;;;;;5001811;28;20527;-69
2023/12/28 01:17:51;;;;;;;24.10;10.52;;;;;;;;;;4999231;28;20070;-71
2023/12/28 01:21:32;;;;;;;21.23;9.68;;;;;;;;;;4997182;28;20054;-69
2023/12/28 01:25:12;;;;;;;14.23;8.05;;;;;;;;;;4998035;28;20433;-70
2023/12/28 01:28:52;;;;;;;20.45;8.55;;;;;;;;;;4997204;28;20121;-71
2023/12/28 01:32:33;;;;;;;17.80;8.45;;;;;;;;;;4997555;28;20042;-69
2023/12/28 01:36:13;;;;;;;16.85;7.07;;;;;;;;;;5007057;28;20123;-67
2023/12/28 01:39:54;;;;;;;13.98;7.38;;;;;;;;;;5005355;28;20070;-70
2023/12/28 01:43:37;;;;;;;12.52;6.53;;;;;;;;;;5002899;28;20144;-69
2023/12/28 01:47:17;;;;;;;13.50;6.63;;;;;;;;;;4997786;28;20057;-71
2023/12/28 01:50:59;;;;;;;20.90;6.55;;;;;;;;;;4999991;28;20077;-69
2023/12/28 01:54:40;;;;;;;11.68;5.40;;;;;;;;;;5002729;28;20081;-70
2023/12/28 01:58:20;;;;;;;8.27;5.38;;;;;;;;;;5009312;28;20064;-69
2023/12/28 02:02:00;;;;;;;18.50;5.78;;;;;;;;;;5001664;28;20053;-69
2023/12/28 02:05:40;;;;;;;12.15;6.10;;;;;;;;;;5004313;28;20540;-71
2023/12/28 02:09:22;;;;;;;11.60;5.47;;;;;;;;;;5000507;28;20547;-73
2023/12/28 02:12:22;;;;;;;12.88;5.20;;;;;;;;;;5001055;28;20068;-69
2023/12/28 02:14:50;;;;;;;11.60;5.95;;;;;;;;;;5003236;28;20050;-70
2023/12/28 02:17:28;;;;;;;9.70;5.72;;;;;;;;;;4999831;28;20053;-69
2023/12/28 02:19:57;;;;;;;8.32;4.82;;;;;;;;;;5004114;28;20050;-68
2023/12/28 02:22:25;;;;;;;9.32;5.40;;;;;;;;;;5005297;28;20116;-72
2023/12/28 02:25:07;;;;;;;8.85;4.93;;;;;;;;;;5007832;28;20357;-70
2023/12/28 02:27:49;;;;;;;12.13;5.55;;;;;;;;;;5004478;28;20398;-69
2023/12/28 02:30:22;;;;;;;6.60;5.10;;;;;;;;;;4999456;28;20049;-71
2023/12/28 02:32:57;;;;;;;10.68;5.50;;;;;;;;;;5011105;28;20125;-70
2023/12/28 02:35:47;;;;;;;8.93;5.07;;;;;;;;;;5001857;28;20058;-70
2023/12/28 02:38:15;;;;;;;10.05;5.63;;;;;;;;;;5005988;28;20061;-69
2023/12/28 02:40:43;;;;;;;7.75;5.10;;;;;;;;;;5006458;28;20069;-70
2023/12/28 02:43:10;;;;;;;10.82;5.30;;;;;;;;;;5004721;28;20046;-70
2023/12/28 02:45:38;;;;;;;10.57;5.18;;;;;;;;;;5006672;28;20509;-70
2023/12/28 02:48:05;;;;;;;10.68;5.35;;;;;;;;;;5009433;28;20046;-69
2023/12/28 02:50:35;;;;;;;11.27;5.03;;;;;;;;;;5005344;28;20404;-69
2023/12/28 02:53:01;;;;;;;14.57;4.93;;;;;;;;;;5004592;28;20058;-69
2023/12/28 02:55:27;;;;;;;10.90;4.80;;;;;;;;;;5006722;28;20073;-70
2023/12/28 02:58:00;;;;;;;10.40;5.13;;;;;;;;;;5007097;28;20053;-73
2023/12/28 03:00:27;;;;;;;7.55;4.80;;;;;;;;;;5005480;28;20046;-71
2023/12/28 03:02:53;;;;;;;9.00;4.45;;;;;;;;;;5006601;28;20045;-70
2023/12/28 03:05:20;;;;;;;9.98;4.30;;;;;;;;;;5017253;28;20053;-70
2023/12/28 03:07:46;;;;;;;12.73;4.75;;;;;;;;;;5006473;28;20053;-71
2023/12/28 03:10:12;;;;;;;5.75;3.50;;;;;;;;;;5007414;28;20084;-70
2023/12/28 03:12:40;;;;;;;10.07;4.28;;;;;;;;;;5007844;28;20555;-69
2023/12/28 03:15:07;;;;;;;8.77;3.90;;;;;;;;;;5000168;28;20057;-68
2023/12/28 03:17:33;;;;;;;9.18;3.75;;;;;;;;;;5016974;28;20050;-68
2023/12/28 03:20:01;;;;;;;10.00;3.42;;;;;;;;;;5009769;28;20432;-69
2023/12/28 03:22:28;;;;;;;8.43;3.53;;;;;;;;;;5010240;28;20419;-69
2023/12/28 03:24:56;;;;;;;5.50;3.72;;;;;;;;;;5007180;28;20056;-70
2023/12/28 03:27:23;;;;;;;4.93;3.40;;;;;;;;;;5018671;28;20430;-69
2023/12/28 03:29:49;;;;;;;7.40;3.50;;;;;;;;;;5010906;28;20069;-68
2023/12/28 03:32:15;;;;;;;9.13;3.25;;;;;;;;;;5005689;28;20357;-68
2023/12/28 03:34:41;;;;;;;5.97;3.38;;;;;;;;;;5003278;28;20113;-69
2023/12/28 03:37:09;;;;;;;5.53;3.40;;;;;;;;;;5002419;28;20050;-70
2023/12/28 03:39:35;;;;;;;11.68;3.78;;;;;;;;;;5008848;28;20060;-69
2023/12/28 03:42:02;;;;;;;10.40;3.88;;;;;;;;;;5008008;28;20049;-70
2023/12/28 03:44:28;;;;;;;10.98;4.00;;;;;;;;;;5007902;28;20136;-69
2023/12/28 03:46:55;;;;;;;7.13;3.60;;;;;;;;;;5000752;28;20085;-68
2023/12/28 03:49:22;;;;;;;11.50;4.07;;;;;;;;;;5009088;28;20507;-69
2023/12/28 03:51:50;;;;;;;6.20;3.72;;;;;;;;;;5007560;28;20068;-68
2023/12/28 03:54:17;;;;;;;7.50;3.88;;;;;;;;;;5005111;28;20165;-70
2023/12/28 03:56:43;;;;;;;5.00;3.45;;;;;;;;;;5008478;28;20124;-69
2023/12/28 03:59:10;;;;;;;5.13;3.60;;;;;;;;;;5012663;28;20050;-69
2023/12/28 04:01:36;;;;;;;6.72;3.70;;;;;;;;;;5005955;28;20132;-67
2023/12/28 04:04:02;;;;;;;8.98;3.88;;;;;;;;;;5008639;28;20165;-69
2023/12/28 04:06:29;;;;;;;9.57;4.25;;;;;;;;;;4999482;28;20192;-70
2023/12/28 04:08:56;;;;;;;6.82;3.92;;;;;;;;;;5004456;28;20050;-69
2023/12/28 04:11:22;;;;;;;7.72;4.00;;;;;;;;;;5007082;28;20104;-68
2023/12/28 04:13:50;;;;;;;7.35;3.92;;;;;;;;;;5003266;28;20057;-68
2023/12/28 04:16:17;;;;;;;8.43;4.43;;;;;;;;;;5004871;28;20059;-70
2023/12/28 04:18:43;;;;;;;10.32;4.38;;;;;;;;;;5008119;28;20493;-68
2023/12/28 04:21:10;;;;;;;8.38;4.10;;;;;;;;;;5009897;28;20578;-68
2023/12/28 04:23:37;;;;;;;6.47;4.10;;;;;;;;;;5008858;28;20472;-68
2023/12/28 04:26:05;;;;;;;7.50;3.97;;;;;;;;;;5007925;28;20061;-68
2023/12/28 04:28:31;;;;;;;13.45;5.72;;;;;;;;;;5003836;28;20391;-69
2023/12/28 04:30:57;;;;;;;9.95;4.18;;;;;;;;;;5000262;28;20129;-68
2023/12/28 04:33:23;;;;;;;7.00;3.72;;;;;;;;;;5009204;28;20050;-68
2023/12/28 04:35:49;;;;;;;7.65;4.00;;;;;;;;;;5007422;28;20072;-69
2023/12/28 04:38:15;;;;;;;8.55;4.43;;;;;;;;;;5008578;28;20065;-70
2023/12/28 04:40:41;;;;;;;8.23;4.40;;;;;;;;;;5005469;28;20543;-69
2023/12/28 04:43:07;;;;;;;12.35;4.07;;;;;;;;;;5006998;28;20046;-69
2023/12/28 04:45:33;;;;;;;5.88;3.90;;;;;;;;;;5000883;28;20318;-69
2023/12/28 04:47:59;;;;;;;8.95;3.90;;;;;;;;;;5002518;28;20432;-69
2023/12/28 04:50:25;;;;;;;5.10;3.15;;;;;;;;;;5001357;28;20045;-69
2023/12/28 04:52:51;;;;;;;9.15;3.50;;;;;;;;;;5001387;28;20042;-70
2023/12/28 04:55:20;;;;;;;6.93;3.50;;;;;;;;;;5004603;28;20657;-69
2023/12/28 04:57:47;;;;;;;8.02;3.03;;;;;;;;;;5007600;28;20151;-68
2023/12/28 05:00:13;;;;;;;6.55;3.22;;;;;;;;;;5004421;28;20411;-70
2023/12/28 05:02:39;;;;;;;8.05;3.55;;;;;;;;;;5005136;28;20088;-70
2023/12/28 05:05:09;;;;;;;9.02;3.30;;;;;;;;;;5001768;28;20527;-68
2023/12/28 05:07:34;;;;;;;9.60;3.50;;;;;;;;;;4997790;28;20108;-69
2023/12/28 05:10:01;;;;;;;11.52;3.40;;;;;;;;;;5006127;28;20511;-70
2023/12/28 05:12:27;;;;;;;7.15;3.88;;;;;;;;;;5005431;28;20045;-69
2023/12/28 05:14:57;;;;;;;7.40;3.28;;;;;;;;;;5002164;28;20736;-69
2023/12/28 05:17:23;;;;;;;8.07;3.35;;;;;;;;;;5001599;28;20119;-69
2023/12/28 05:19:49;;;;;;;8.10;2.65;;;;;;;;;;5004565;28;20058;-69
2023/12/28 05:22:16;;;;;;;6.75;2.83;;;;;;;;;;5003817;28;20206;-69
2023/12/28 05:24:42;;;;;;;9.27;3.05;;;;;;;;;;5004147;28;20078;-69
2023/12/28 05:27:08;;;;;;;9.02;2.70;;;;;;;;;;5002808;28;20140;-70
2023/12/28 05:29:34;;;;;;;7.03;2.70;;;;;;;;;;5002114;28;20050;-71
2023/12/28 05:32:00;;;;;;;4.80;2.30;;;;;;;;;;5002183;28;20041;-69
2023/12/28 05:34:26;;;;;;;7.13;2.83;;;;;;;;;;5009880;28;20589;-68
2023/12/28 05:36:53;;;;;;;6.75;2.90;;;;;;;;;;5009277;28;20049;-68
2023/12/28 05:39:20;;;;;;;6.72;2.95;;;;;;;;;;4985239;28;20058;-69
2023/12/28 05:41:47;;;;;;;5.53;2.90;;;;;;;;;;4995463;28;20049;-68
2023/12/28 05:44:15;;;;;;;7.88;2.85;;;;;;;;;;4999602;28;20061;-69
2023/12/28 05:46:42;;;;;;;5.28;2.95;;;;;;;;;;5004576;28;20053;-68
2023/12/28 05:49:08;;;;;;;7.32;2.90;;;;;;;;;;5008002;28;20060;-69
2023/12/28 05:51:39;;;;;;;5.93;3.17;;;;;;;;;;4999645;28;20050;-70
2023/12/28 05:54:09;;;;;;;6.72;3.40;;;;;;;;;;5007059;28;20058;-70
2023/12/28 05:56:35;;;;;;;8.02;3.13;;;;;;;;;;5003468;28;20145;-68
2023/12/28 05:59:02;;;;;;;6.32;3.30;;;;;;;;;;5008818;28;20115;-70
2023/12/28 06:01:27;;;;;;;6.30;3.05;;;;;;;;;;4995600;28;20496;-68
2023/12/28 06:03:55;;;;;;;5.78;2.80;;;;;;;;;;5009394;28;20062;-69
2023/12/28 06:06:22;;;;;;;9.02;3.35;;;;;;;;;;4993094;28;20058;-67
2023/12/28 06:08:52;;;;;;;6.38;3.42;;;;;;;;;;4999621;28;20053;-71
2023/12/28 06:11:17;;;;;;;6.05;3.17;;;;;;;;;;4990167;28;20527;-70
2023/12/28 06:14:24;;;;;;;5.22;3.20;;;;;;;;;;4995182;28;20420;-70
2023/12/28 06:18:04;;;;;;;7.55;3.65;;;;;;;;;;5001428;28;20137;-69
2023/12/28 06:21:44;;;;;;;9.23;3.78;;;;;;;;;;5001041;28;20329;-70
2023/12/28 06:25:40;;;;;;;8.32;3.45;;;;;;;;;;5002621;28;20195;-70
2023/12/28 06:29:22;;;;;;;11.48;3.60;;;;;;;;;;4999760;28;20450;-67
2023/12/28 06:33:02;;;;;;;8.80;3.80;;;;;;;;;;5002264;28;20510;-68
2023/12/28 06:36:46;;;;;;;8.45;3.60;;;;;;;;;;5006463;28;20034;-69
2023/12/28 06:40:26;;;;;;;13.70;3.50;;;;;;;;;;4996410;28;20989;-67
2023/12/28 06:44:08;;;;;;;6.30;3.80;;;;;;;;;;4990756;28;20492;-67
2023/12/28 06:47:48;;;;;;;6.55;3.75;;;;;;;;;;4998800;28;20108;-68
2023/12/28 06:51:15;;;;;;;10.48;4.00;;;;;;;;;;4996585;28;20054;-68
2023/12/28 06:54:22;;;;;;;14.40;3.70;;;;;;;;;;4991960;28;20503;-67
2023/12/28 06:58:03;;;;;;;6.35;3.95;;;;;;;;;;4994883;28;20081;-69
2023/12/28 07:01:44;;;;;;;10.98;3.63;;;;;;;;;;5000410;28;20045;-70
2023/12/28 07:05:23;;;;;;;8.68;4.22;;;;;;;;;;4994207;28;20692;-67
2023/12/28 07:09:04;;;;;;;14.63;4.45;;;;;;;;;;4988455;28;20050;-69
2023/12/28 07:12:44;;;;;;;17.88;5.15;;;;;;;;;;4997050;28;20044;-68
2023/12/28 07:16:24;;;;;;;12.48;4.35;;;;;;;;;;5003046;28;20283;-68
2023/12/28 07:20:04;;;;;;;12.23;4.63;;;;;;;;;;5010084;28;20061;-69
2023/12/28 07:23:49;;;;;;;12.15;5.15;;;;;;;;;;5002030;28;20439;-68
2023/12/28 07:27:28;;;;;;;14.02;4.72;;;;;;;;;;4987924;28;20058;-68
2023/12/28 07:31:10;;;;;;;15.07;5.07;;;;;;;;;;4994125;28;20046;-69
2023/12/28 07:34:10;;;;;;;13.88;5.50;;;;;;;;;;5001378;28;20414;-68
2023/12/28 07:37:16;;;;;;;11.75;5.07;;;;;;;;;;4997804;28;20057;-66
2023/12/28 07:40:59;;;;;;;11.68;5.20;;;;;;;;;;4993656;28;20508;-68
2023/12/28 07:44:40;;;;;;;14.27;4.95;;;;;;;;;;5002328;28;20519;-67
2023/12/28 07:48:19;;;;;;;15.05;5.40;;;;;;;;;;5001618;28;20100;-68
2023/12/28 07:52:00;;;;;;;14.68;5.45;;;;;;;;;;5008864;28;20045;-68
2023/12/28 07:55:40;;;;;;;17.88;5.38;;;;;;;;;;4998987;28;20427;-69
2023/12/28 07:59:21;;;;;;;18.77;6.03;;;;;;;;;;4996908;28;20073;-71
2023/12/28 08:03:03;;;;;;;12.27;5.38;;;;;;;;;;4997175;28;20396;-67
2023/12/28 08:06:44;;;;;;;17.98;5.57;;;;;;;;;;5001597;28;20740;-67
2023/12/28 08:10:25;;;;;;;29.33;6.18;;;;;;;;;;4994801;28;20084;-66
2023/12/28 08:14:05;;;;;;;12.57;5.47;;;;;;;;;;4991643;28;20106;-66
2023/12/28 08:17:46;;;;;;;13.85;5.60;;;;;;;;;;4998246;28;20046;-67
2023/12/28 08:21:26;;;;;;;19.55;6.38;;;;;;;;;;5002642;28;20348;-69
2023/12/28 08:25:10;;;;;;;17.30;5.95;;;;;;;;;;4990484;28;20144;-68
2023/12/28 08:28:50;;;;;;;16.40;6.60;;;;;;;;;;4996343;28;20062;-67
2023/12/28 08:32:30;;;;;;;13.95;6.25;;;;;;;;;;4995863;28;20050;-68
2023/12/28 08:36:11;;;;;;;19.17;5.90;;;;;;;;;;4995250;28;20683;-67
2023/12/28 08:39:51;;;;;;;15.38;6.38;;;;;;;;;;5000400;28;20153;-69
2023/12/28 08:43:31;;;;;;;24.80;6.72;;;;;;;;;;5001940;28;20049;-67
2023/12/28 08:47:12;;;;;;;18.20;6.60;;;;;;;;;;4996489;28;20057;-68
2023/12/28 08:50:52;;;;;;;19.13;7.32;;;;;;;;;;5005248;28;20129;-67
2023/12/28 08:54:35;;;;;;;14.55;6.53;;;;;;;;;;5000337;28;20451;-72
2023/12/28 08:58:16;;;;;;;27.17;6.72;;;;;;;;;;4996136;28;20138;-67
2023/12/28 09:01:56;;;;;;;23.52;6.47;;;;;;;;;;4997731;28;20125;-67
2023/12/28 09:05:36;;;;;;;23.83;6.80;;;;;;;;;;4994078;28;20050;-69
2023/12/28 09:09:17;;;;;;;14.57;6.35;;;;;;;;;;4997057;28;20076;-66
2023/12/28 09:12:57;;;;;;;19.63;5.95;;;;;;;;;;5002238;28;20053;-68
2023/12/28 09:16:39;;;;;;;26.27;6.70;;;;;;;;;;4998059;28;20061;-67
2023/12/28 09:20:18;;;;;;;17.30;6.22;;;;;;;;;;4996319;28;20064;-69
2023/12/28 09:23:58;;;;;;;18.67;5.32;;;;;;;;;;5000931;28;20053;-68
2023/12/28 09:27:39;;;;;;;12.68;5.30;;;;;;;;;;4998465;28;20060;-67
2023/12/28 09:31:21;;;;;;;17.55;6.22;;;;;;;;;;5001774;28;20053;-67
2023/12/28 09:35:02;;;;;;;16.13;5.03;;;;;;;;;;4995678;28;20054;-67
2023/12/28 09:38:43;;;;;;;14.32;5.00;;;;;;;;;;4995505;28;20046;-67
2023/12/28 09:42:23;;;;;;;16.60;5.20;;;;;;;;;;4990372;28;20389;-70
2023/12/28 09:46:04;;;;;;;14.05;4.85;;;;;;;;;;5000721;28;20376;-70
2023/12/28 09:49:44;;;;;;;12.57;5.53;;;;;;;;;;4996941;28;20049;-72
2023/12/28 09:53:25;;;;;;;12.50;4.30;;;;;;;;;;4994334;28;20061;-68
2023/12/28 09:57:06;;;;;;;7.60;3.95;;;;;;;;;;5001065;28;20103;-69
2023/12/28 10:00:46;;;;;;;11.07;4.03;;;;;;;;;;4997592;28;20042;-69
2023/12/28 10:04:28;;;;;;;16.98;4.97;;;;;;;;;;4991974;28;20042;-65
2023/12/28 10:08:07;;;;;;;13.95;4.10;;;;;;;;;;4995062;28;20503;-66
2023/12/28 10:11:48;;;;;;;13.27;4.22;;;;;;;;;;4995721;28;20099;-65
2023/12/28 10:15:28;;;;;;;9.50;3.92;;;;;;;;;;5003400;28;20041;-68
2023/12/28 10:19:08;;;;;;;16.13;4.70;;;;;;;;;;4994858;28;20058;-73
2023/12/28 10:22:49;;;;;;;12.20;4.25;;;;;;;;;;5002136;28;20057;-70
2023/12/28 10:26:29;;;;;;;12.70;5.00;;;;;;;;;;4991780;28;20081;-71
2023/12/28 10:30:11;;;;;;;16.27;5.32;;;;;;;;;;4993428;28;20499;-73
2023/12/28 10:33:57;;;;;;;12.90;5.43;;;;;;;;;;5002739;28;20062;-69
2023/12/28 10:37:37;;;;;;;18.25;5.50;;;;;;;;;;4995714;28;20054;-69
2023/12/28 10:41:20;;;;;;;15.80;6.28;;;;;;;;;;4994897;28;20053;-69
2023/12/28 10:45:01;;;;;;;17.48;5.80;;;;;;;;;;4996871;28;20140;-69
2023/12/28 10:48:30;;;;;;;13.05;6.07;;;;;;;;;;4994775;28;20549;-71
2023/12/28 10:52:10;;;;;;;23.05;6.82;;;;;;;;;;5004631;28;20035;-69
2023/12/28 10:55:34;;;;;;;17.15;7.35;;;;;;;;;;5001140;28;20095;-71
2023/12/28 10:59:10;;;;;;;14.13;7.53;;;;;;;;;;4997935;28;20050;-70
2023/12/28 11:02:51;;;;;;;17.00;7.57;;;;;;;;;;4999869;28;20448;-70
2023/12/28 11:06:32;;;;;;;20.10;8.70;;;;;;;;;;5007902;28;20053;-70
2023/12/28 11:10:12;;;;;;;18.08;6.82;;;;;;;;;;5001648;28;20121;-70
2023/12/28 11:13:53;;;;;;;16.00;8.43;;;;;;;;;;5003093;28;20092;-69
2023/12/28 11:17:33;;;;;;;17.35;8.35;;;;;;;;;;5008859;28;20452;-71
2023/12/28 11:21:13;;;;;;;16.83;9.55;;;;;;;;;;4995727;28;20046;-69
2023/12/28 11:24:56;;;;;;;16.00;9.10;;;;;;;;;;4999282;28;20057;-72
2023/12/28 11:28:36;;;;;;;24.23;9.88;;;;;;;;;;4995430;28;20085;-71
2023/12/28 11:32:16;;;;;;;18.77;9.60;;;;;;;;;;5004827;28;20567;-67
2023/12/28 11:35:59;;;;;;;16.15;9.88;;;;;;;;;;4996883;28;20084;-70
2023/12/28 11:39:49;;;;;;;20.60;9.77;;;;;;;;;;5007417;28;20042;-69
2023/12/28 11:43:38;;;;;;;23.42;10.48;;;;;;;;;;5000194;28;20038;-66
2023/12/28 11:47:18;;;;;;;12.85;8.27;;;;;;;;;;4996799;28;20061;-63
2023/12/28 11:50:59;;;;;;;18.33;10.93;;;;;;;;;;5004135;28;20757;-71
2023/12/28 11:54:39;;;;;;;14.05;9.90;;;;;;;;;;4999404;28;20049;-71
2023/12/28 11:58:19;;;;;;;23.05;11.30;;;;;;;;;;4994613;28;20076;-70
2023/12/28 12:02:00;;;;;;;17.88;10.15;;;;;;;;;;4999970;28;20056;-71
2023/12/28 12:05:40;;;;;;;16.63;10.57;;;;;;;;;;5002100;28;20058;-70
2023/12/28 12:09:22;;;;;;;15.65;10.98;;;;;;;;;;5001664;28;20058;-69
2023/12/28 12:13:05;;;;;;;18.65;11.70;;;;;;;;;;5001750;28;20401;-70
2023/12/28 12:16:45;;;;;;;22.27;11.40;;;;;;;;;;4997777;28;20033;-69
2023/12/28 12:20:26;;;;;;;20.83;12.85;;;;;;;;;;5000146;28;20057;-71
2023/12/28 12:24:08;;;;;;;109.85;51.83;;;;;;;;;;5001908;28;20050;-73
2023/12/28 12:27:49;;;;;;;27.80;14.68;;;;;;;;;;4998818;28;20070;-72
2023/12/28 12:31:30;;;;;;;20.80;11.80;;;;;;;;;;5000461;28;20050;-72
2023/12/28 12:35:11;;;;;;;22.60;12.15;;;;;;;;;;5003070;28;20042;-72
2023/12/28 12:38:52;;;;;;;19.67;11.90;;;;;;;;;;4994853;28;20185;-69
2023/12/28 12:42:33;;;;;;;18.00;11.50;;;;;;;;;;4998640;28;20046;-70
2023/12/28 12:46:14;;;;;;;18.50;11.27;;;;;;;;;;4999441;28;20049;-69
2023/12/28 12:49:54;;;;;;;19.60;11.60;;;;;;;;;;5001362;28;20061;-70
2023/12/28 12:53:34;;;;;;;20.40;12.32;;;;;;;;;;4997139;28;20520;-73
2023/12/28 12:57:14;;;;;;;19.00;11.55;;;;;;;;;;4994137;28;20274;-74
2023/12/28 13:00:55;;;;;;;24.88;12.65;;;;;;;;;;4995666;28;20231;-69
2023/12/28 13:04:38;;;;;;;19.48;12.35;;;;;;;;;;5002002;28;20037;-70
2023/12/28 13:08:20;;;;;;;23.40;11.80;;;;;;;;;;4999113;28;20107;-75
2023/12/28 13:12:00;;;;;;;22.15;11.68;;;;;;;;;;4993180;28;20044;-71
2023/12/28 13:15:46;;;;;;;18.83;11.57;;;;;;;;;;5001113;28;20518;-71
2023/12/28 13:19:26;;;;;;;19.00;11.23;;;;;;;;;;4996639;28;20439;-72
2023/12/28 13:23:07;;;;;;;20.33;9.73;;;;;;;;;;5001910;28;20116;-72
2023/12/28 13:26:50;;;;;;;20.33;10.85;;;;;;;;;;4999136;28;20264;-71
2023/12/28 13:30:31;;;;;;;21.45;11.85;;;;;;;;;;5006814;28;20758;-71
2023/12/28 13:34:11;;;;;;;23.88;11.27;;;;;;;;;;4998528;28;20452;-72
2023/12/28 13:37:51;;;;;;;15.35;10.05;;;;;;;;;;4999660;28;20137;-69
2023/12/28 13:41:32;;;;;;;20.80;10.30;;;;;;;;;;4998425;28;21069;-66
2023/12/28 13:45:13;;;;;;;21.35;11.43;;;;;;;;;;4999525;28;20124;-70
2023/12/28 13:48:54;;;;;;;16.73;10.20;;;;;;;;;;4997687;28;20050;-69
2023/12/28 13:52:38;;;;;;;22.00;11.10;;;;;;;;;;5002082;28;20053;-72
2023/12/28 13:56:17;;;;;;;18.73;10.93;;;;;;;;;;4997485;28;20100;-68
2023/12/28 14:00:00;;;;;;;14.07;9.77;;;;;;;;;;4997138;28;20108;-69
2023/12/28 14:03:38;;;;;;;21.23;11.20;;;;;;;;;;4989083;28;20065;-69
2023/12/28 14:07:19;;;;;;;22.55;12.57;;;;;;;;;;4992021;28;20041;-68
2023/12/28 14:10:59;;;;;;;18.40;11.75;;;;;;;;;;4994954;28;20064;-69
2023/12/28 14:14:41;;;;;;;18.63;11.80;;;;;;;;;;4992936;28;20037;-68
2023/12/28 14:18:21;;;;;;;18.73;11.18;;;;;;;;;;5009125;28;20045;-74
2023/12/28 14:22:02;;;;;;;17.85;10.48;;;;;;;;;;4991769;28;20038;-70
2023/12/28 14:25:43;;;;;;;17.75;10.70;;;;;;;;;;4996500;28;20050;-77
2023/12/28 14:29:23;;;;;;;15.32;9.88;;;;;;;;;;5007096;28;20042;-76
2023/12/28 14:33:06;;;;;;;14.93;9.68;;;;;;;;;;5007573;28;20037;-77
2023/12/28 14:36:50;;;;;;;17.15;10.07;;;;;;;;;;5003908;28;20042;-77
2023/12/28 14:40:30;;;;;;;17.33;9.23;;;;;;;;;;4992957;28;20081;-76
2023/12/28 14:44:12;;;;;;;16.92;9.90;;;;;;;;;;5009295;28;20454;-78
2023/12/28 14:47:54;;;;;;;16.73;9.80;;;;;;;;;;5004824;28;20054;-77
2023/12/28 14:51:34;;;;;;;21.33;11.10;;;;;;;;;;5005245;28;20460;-78
2023/12/28 14:54:34;;;;;;;14.90;9.25;;;;;;;;;;5008762;28;20129;-77
2023/12/28 14:57:01;;;;;;;15.50;10.13;;;;;;;;;;5001845;28;20054;-75
2023/12/28 14:59:27;;;;;;;16.65;9.30;;;;;;;;;;5005567;28;20046;-75
2023/12/28 15:02:33;;;;;;;17.27;10.00;;;;;;;;;;5000801;28;20100;-77
2023/12/28 15:06:13;;;;;;;15.93;9.10;;;;;;;;;;4993705;28;20048;-74
2023/12/28 15:09:55;;;;;;;17.70;9.52;;;;;;;;;;4993754;28;20050;-76
2023/12/28 15:13:35;;;;;;;16.90;9.32;;;;;;;;;;4994151;28;20050;-77
2023/12/28 15:17:17;;;;;;;20.20;9.95;;;;;;;;;;5000640;28;20041;-78
2023/12/28 15:20:58;;;;;;;15.82;9.90;;;;;;;;;;4999788;28;20046;-78
2023/12/28 15:24:38;;;;;;;16.35;9.85;;;;;;;;;;4996260;28;20061;-77
2023/12/28 15:28:20;;;;;;;13.85;9.90;;;;;;;;;;4994106;28;20054;-78
2023/12/28 15:32:01;;;;;;;16.48;10.27;;;;;;;;;;4994384;28;20050;-75
2023/12/28 15:35:42;;;;;;;19.13;10.63;;;;;;;;;;4992050;28;20050;-75
2023/12/28 15:39:24;;;;;;;17.63;10.88;;;;;;;;;;4999568;28;20168;-79
2023/12/28 15:43:03;;;;;;;21.00;11.63;;;;;;;;;;4997869;28;20559;-76
2023/12/28 15:46:45;;;;;;;25.08;10.95;;;;;;;;;;5007305;28;20068;-77
2023/12/28 15:50:27;;;;;;;16.48;9.50;;;;;;;;;;5008941;28;20099;-76
2023/12/28 15:54:07;;;;;;;14.48;9.43;;;;;;;;;;5001992;28;20050;-74
2023/12/28 15:57:50;;;;;;;14.57;8.88;;;;;;;;;;5002202;28;20081;-80
2023/12/28 16:01:28;;;;;;;12.73;8.02;;;;;;;;;;5008291;28;20046;-72
2023/12/28 16:05:09;;;;;;;13.95;9.00;;;;;;;;;;4996521;28;20125;-75
2023/12/28 16:08:49;;;;;;;16.30;8.98;;;;;;;;;;5000123;28;20054;-74
2023/12/28 16:12:29;;;;;;;15.40;8.82;;;;;;;;;;4997675;28;20608;-76
2023/12/28 16:16:10;;;;;;;11.93;7.97;;;;;;;;;;5004424;28;20128;-74
2023/12/28 16:19:50;;;;;;;9.27;7.93;;;;;;;;;;5004017;28;20049;-78
2023/12/28 16:23:31;;;;;;;14.93;8.23;;;;;;;;;;5007682;28;20054;-80
2023/12/28 16:27:12;;;;;;;22.42;8.30;;;;;;;;;;5003709;28;20050;-77
2023/12/28 16:30:53;;;;;;;21.15;9.13;;;;;;;;;;5003529;28;20132;-78
2023/12/28 16:34:35;;;;;;;12.95;8.38;;;;;;;;;;5011016;28;20050;-79
2023/12/28 16:38:13;;;;;;;13.75;8.60;;;;;;;;;;5007591;28;20541;-75
2023/12/28 16:41:54;;;;;;;14.13;8.35;;;;;;;;;;5007944;28;20290;-74
2023/12/28 16:45:34;;;;;;;15.82;8.82;;;;;;;;;;5002058;28;20701;-74
2023/12/28 16:49:16;;;;;;;15.73;9.50;;;;;;;;;;5002119;28;20070;-71
2023/12/28 16:52:56;;;;;;;14.77;9.68;;;;;;;;;;5017426;28;20068;-73
2023/12/28 16:56:39;;;;;;;16.83;8.10;;;;;;;;;;5005224;28;20403;-77
2023/12/28 17:00:18;;;;;;;14.02;8.65;;;;;;;;;;4999438;28;20050;-79
2023/12/28 17:04:02;;;;;;;20.20;8.50;;;;;;;;;;4999595;28;20474;-75
2023/12/28 17:07:43;;;;;;;14.65;7.93;;;;;;;;;;5000943;28;20057;-78
2023/12/28 17:11:23;;;;;;;17.00;9.18;;;;;;;;;;4993211;28;20124;-73
2023/12/28 17:15:04;;;;;;;22.45;8.98;;;;;;;;;;4994002;28;20050;-72
2023/12/28 17:18:48;;;;;;;12.13;8.10;;;;;;;;;;4997480;28;20057;-73
2023/12/28 17:22:29;;;;;;;11.65;7.55;;;;;;;;;;4999008;28;20053;-74
2023/12/28 17:26:21;;;;;;;12.32;8.63;;;;;;;;;;4997906;28;20209;-71
2023/12/28 17:30:06;;;;;;;13.07;8.13;;;;;;;;;;5007834;28;20518;-70
2023/12/28 17:33:44;;;;;;;15.00;8.68;;;;;;;;;;4987722;28;20072;-71
2023/12/28 17:37:25;;;;;;;11.70;8.30;;;;;;;;;;4996593;28;20132;-66
2023/12/28 17:41:05;;;;;;;13.38;8.60;;;;;;;;;;5004188;28;20054;-72
2023/12/28 17:44:46;;;;;;;17.45;9.63;;;;;;;;;;5004202;28;20048;-72
2023/12/28 17:48:43;;;;;;;15.93;9.02;;;;;;;;;;4996811;28;20038;-72
2023/12/28 17:52:24;;;;;;;17.30;9.50;;;;;;;;;;4994531;28;20389;-71
2023/12/28 17:56:03;;;;;;;19.80;10.35;;;;;;;;;;4994539;28;20159;-70
2023/12/28 17:59:44;;;;;;;17.35;9.98;;;;;;;;;;4996485;28;20432;-71
2023/12/28 18:03:28;;;;;;;16.10;10.02;;;;;;;;;;4998087;28;20057;-68
2023/12/28 18:07:09;;;;;;;19.83;9.90;;;;;;;;;;4993923;28;20515;-69
2023/12/28 18:10:49;;;;;;;20.30;9.45;;;;;;;;;;4997921;28;20057;-70
2023/12/28 18:14:31;;;;;;;14.63;10.10;;;;;;;;;;5002749;28;20401;-72
2023/12/28 18:18:11;;;;;;;17.88;10.85;;;;;;;;;;5002666;28;20038;-73
2023/12/28 18:21:51;;;;;;;24.00;11.52;;;;;;;;;;5005932;28;20041;-69
2023/12/28 18:25:32;;;;;;;22.35;11.40;;;;;;;;;;4994701;28;20313;-73
2023/12/28 18:29:12;;;;;;;20.08;11.18;;;;;;;;;;4991242;28;23196;-72
2023/12/28 18:32:56;;;;;;;18.65;11.43;;;;;;;;;;4995373;28;20060;-70
2023/12/28 18:36:36;;;;;;;20.38;11.73;;;;;;;;;;5004481;28;20060;-70
2023/12/28 18:40:17;;;;;;;20.08;12.93;;;;;;;;;;5003917;28;20057;-72
2023/12/28 18:43:57;;;;;;;21.25;12.52;;;;;;;;;;5001535;28;20050;-71
2023/12/28 18:47:37;;;;;;;23.10;12.57;;;;;;;;;;4991658;28;20751;-74
2023/12/28 18:51:22;;;;;;;22.00;11.90;;;;;;;;;;5005396;28;20458;-71
2023/12/28 18:55:04;;;;;;;22.30;12.27;;;;;;;;;;4993871;28;20046;-70
2023/12/28 18:58:44;;;;;;;22.45;11.50;;;;;;;;;;4989350;28;20460;-70
2023/12/28 19:02:26;;;;;;;21.58;12.07;;;;;;;;;;5002968;28;20143;-72
2023/12/28 19:06:05;;;;;;;25.15;12.68;;;;;;;;;;5010181;28;20057;-73
2023/12/28 19:09:45;;;;;;;21.83;13.35;;;;;;;;;;4995032;28;20679;-72
2023/12/28 19:13:25;;;;;;;27.33;14.45;;;;;;;;;;5013099;28;20053;-77
2023/12/28 19:17:07;;;;;;;32.67;13.38;;;;;;;;;;5001893;28;20213;-69
2023/12/28 19:20:47;;;;;;;30.45;13.95;;;;;;;;;;5009351;28;20053;-69
2023/12/28 19:24:29;;;;;;;27.92;13.75;;;;;;;;;;5001013;28;20065;-68
2023/12/28 19:28:09;;;;;;;28.63;14.63;;;;;;;;;;4994157;28;20522;-73
2023/12/28 19:31:49;;;;;;;33.67;14.93;;;;;;;;;;4978500;28;20237;-72
2023/12/28 19:35:28;;;;;;;39.47;15.40;;;;;;;;;;4995880;28;20049;-73